Loyola Beach, Texas
Current Conditions -  °F | °C
As of 7:56 PM on Friday 21 Nov 2014 (Local Time) from KNQI Reporting Station
Overcast Overcast  
Wind Chill: 73°   Ceiling: 6000
Heat Index: 73°   Visibility: 10mi
Dew Point: 68°   Wind: 13mph
Humidity: 84%   Direction: 140°SE
Pressure: 30.02"   Gusts: NA
Location:  27.3193°N, 97.8839°W
Report Text: KNQI 220156Z AUTO 14011KT 10SM BKN060 OVC090 23/20 A3002 RMK AO2 SLP163 T02280200 $
Loading
Personal Weather Stations






























Interactive Weather Map New forecast layout! Learn more

10-Day Weather Forecast

Advertisements
Track Severe Weather on mobile